RYR84RR EGGW-LFLS
Flight info
| Callsign | RYR84RR |
|---|---|
| Flight time | 1h 22m |
| Altitude | 29000 |
| Route | RODNI N27 ICTAM Q63 CPT DCT MID/N0462F290 UL612 OGULO DCT OKASI DCT OKEKO DCT OKEPI DCT MOU DCT OMANI A3 LESPI |
| Aircraft | B738/M-SDE2E3FGHIRWXY/LB1 |
Departure
| Time | 2026-04-25 15:39 |
|---|---|
| Airport | London Luton Airport (EGGW) |
Arrival
| Time | 2026-04-25 17:02 |
|---|---|
| Airport | Grenoble Alpes Isère Airport (LFLS) |
| Time | Latitude | Longitude | Altitude | Speed | Heading |
|---|---|---|---|---|---|
| 2026-04-25 14:49 | 51.87926 | -0.37932 | 522 ft | 0 kts | 101° |
| 2026-04-25 15:16 | 51.87934 | -0.37973 | 522 ft | 4 kts | 129° |
| 2026-04-25 15:17 | 51.87970 | -0.37994 | 522 ft | 0 kts | 199° |
| 2026-04-25 15:17 | 51.87969 | -0.37994 | 522 ft | 0 kts | 199° |
| 2026-04-25 15:30 | 51.87967 | -0.37995 | 522 ft | 2 kts | 199° |
| 2026-04-25 15:30 | 51.87924 | -0.38016 | 522 ft | 9 kts | 188° |
| 2026-04-25 15:30 | 51.87863 | -0.38002 | 522 ft | 9 kts | 160° |
| 2026-04-25 15:31 | 51.87810 | -0.37939 | 522 ft | 11 kts | 130° |
| 2026-04-25 15:31 | 51.87776 | -0.37834 | 522 ft | 10 kts | 113° |
| 2026-04-25 15:31 | 51.87746 | -0.37728 | 522 ft | 10 kts | 115° |
| 2026-04-25 15:31 | 51.87709 | -0.37603 | 518 ft | 14 kts | 115° |
| 2026-04-25 15:32 | 51.87656 | -0.37482 | 521 ft | 13 kts | 146° |
| 2026-04-25 15:32 | 51.87570 | -0.37459 | 521 ft | 13 kts | 188° |
| 2026-04-25 15:32 | 51.87503 | -0.37540 | 521 ft | 13 kts | 254° |
| 2026-04-25 15:33 | 51.87456 | -0.37811 | 521 ft | 12 kts | 255° |
| 2026-04-25 15:33 | 51.87433 | -0.37945 | 522 ft | 12 kts | 254° |
| 2026-04-25 15:33 | 51.87386 | -0.38052 | 522 ft | 12 kts | 208° |
| 2026-04-25 15:33 | 51.87351 | -0.38079 | 522 ft | 0 kts | 206° |
| 2026-04-25 15:37 | 51.87344 | -0.38085 | 521 ft | 4 kts | 206° |
| 2026-04-25 15:37 | 51.87298 | -0.38114 | 521 ft | 9 kts | 186° |
| 2026-04-25 15:37 | 51.87253 | -0.38069 | 523 ft | 8 kts | 95° |
| 2026-04-25 15:37 | 51.87255 | -0.38042 | 523 ft | 0 kts | 75° |
| 2026-04-25 15:38 | 51.87256 | -0.38038 | 523 ft | 4 kts | 75° |
| 2026-04-25 15:38 | 51.87319 | -0.37675 | 520 ft | 76 kts | 74° |
| 2026-04-25 15:39 | 51.87642 | -0.35812 | 599 ft | 169 kts | 73° |
| 2026-04-25 15:39 | 51.87868 | -0.34557 | 1096 ft | 176 kts | 73° |
| 2026-04-25 15:39 | 51.88194 | -0.32663 | 2226 ft | 177 kts | 74° |
| 2026-04-25 15:39 | 51.88540 | -0.30684 | 2969 ft | 195 kts | 73° |
| 2026-04-25 15:40 | 51.89082 | -0.27635 | 3442 ft | 225 kts | 73° |
| 2026-04-25 15:40 | 51.89206 | -0.26800 | 3623 ft | 228 kts | 80° |
| 2026-04-25 15:40 | 51.88175 | -0.23029 | 4688 ft | 239 kts | 149° |
| 2026-04-25 15:40 | 51.87121 | -0.22399 | 5200 ft | 242 kts | 175° |
| 2026-04-25 15:41 | 51.85497 | -0.22882 | 6089 ft | 240 kts | 211° |
| 2026-04-25 15:41 | 51.84380 | -0.24819 | 6905 ft | 239 kts | 249° |
| 2026-04-25 15:41 | 51.83923 | -0.27404 | 7697 ft | 241 kts | 257° |
| 2026-04-25 15:41 | 51.83536 | -0.30028 | 8467 ft | 245 kts | 257° |
| 2026-04-25 15:42 | 51.83133 | -0.32724 | 9284 ft | 248 kts | 257° |
| 2026-04-25 15:42 | 51.82706 | -0.35481 | 10123 ft | 251 kts | 256° |
| 2026-04-25 15:42 | 51.82274 | -0.38189 | 10850 ft | 253 kts | 256° |
| 2026-04-25 15:42 | 51.81821 | -0.40998 | 11372 ft | 269 kts | 256° |
| 2026-04-25 15:43 | 51.81327 | -0.44044 | 11711 ft | 288 kts | 256° |
| 2026-04-25 15:43 | 51.80830 | -0.47268 | 12443 ft | 293 kts | 257° |
| 2026-04-25 15:43 | 51.80351 | -0.50438 | 13275 ft | 295 kts | 257° |
| 2026-04-25 15:43 | 51.79862 | -0.53673 | 14090 ft | 298 kts | 257° |
| 2026-04-25 15:44 | 51.79366 | -0.56937 | 14796 ft | 301 kts | 257° |
| 2026-04-25 15:44 | 51.78864 | -0.60229 | 15526 ft | 303 kts | 257° |
| 2026-04-25 15:44 | 51.78356 | -0.63550 | 16259 ft | 306 kts | 257° |
| 2026-04-25 15:44 | 51.77830 | -0.66988 | 16514 ft | 326 kts | 257° |
| 2026-04-25 15:45 | 51.77269 | -0.70650 | 16784 ft | 344 kts | 257° |
| 2026-04-25 15:45 | 51.76685 | -0.74431 | 17371 ft | 350 kts | 257° |
| 2026-04-25 15:45 | 51.75986 | -0.78198 | 18090 ft | 354 kts | 246° |
| 2026-04-25 15:45 | 51.75112 | -0.80502 | 18559 ft | 358 kts | 233° |
| 2026-04-25 15:46 | 51.72821 | -0.84385 | 19276 ft | 367 kts | 226° |
| 2026-04-25 15:46 | 51.70953 | -0.87343 | 19395 ft | 385 kts | 226° |
| 2026-04-25 15:46 | 51.69016 | -0.90388 | 19783 ft | 393 kts | 226° |
| 2026-04-25 15:46 | 51.67065 | -0.93480 | 20401 ft | 394 kts | 226° |
| 2026-04-25 15:47 | 51.65118 | -0.96586 | 21039 ft | 395 kts | 226° |
| 2026-04-25 15:47 | 51.63159 | -0.99718 | 21519 ft | 399 kts | 227° |
| 2026-04-25 15:47 | 51.61222 | -1.02809 | 22026 ft | 403 kts | 226° |
| 2026-04-25 15:47 | 51.59219 | -1.05987 | 22588 ft | 405 kts | 226° |
| 2026-04-25 15:48 | 51.57205 | -1.09175 | 23127 ft | 408 kts | 226° |
| 2026-04-25 15:48 | 51.55175 | -1.12386 | 23620 ft | 411 kts | 227° |
| 2026-04-25 15:48 | 51.53131 | -1.15616 | 24048 ft | 414 kts | 227° |
| 2026-04-25 15:48 | 51.50946 | -1.18663 | 24445 ft | 420 kts | 214° |
| 2026-04-25 15:49 | 51.48273 | -1.20625 | 24866 ft | 428 kts | 199° |
| 2026-04-25 15:49 | 51.45326 | -1.21440 | 25293 ft | 434 kts | 185° |
| 2026-04-25 15:49 | 51.42295 | -1.21053 | 25682 ft | 442 kts | 170° |
| 2026-04-25 15:49 | 51.39361 | -1.19499 | 26049 ft | 449 kts | 156° |
| 2026-04-25 15:50 | 51.36770 | -1.16670 | 26418 ft | 456 kts | 136° |
| 2026-04-25 15:50 | 51.34908 | -1.12580 | 26920 ft | 457 kts | 117° |
| 2026-04-25 15:50 | 51.33638 | -1.07948 | 27538 ft | 454 kts | 112° |
| 2026-04-25 15:50 | 51.32449 | -1.03279 | 28042 ft | 453 kts | 115° |
| 2026-04-25 15:51 | 51.30952 | -0.98853 | 28466 ft | 453 kts | 124° |
| 2026-04-25 15:51 | 51.29732 | -0.96151 | 28651 ft | 456 kts | 130° |
| 2026-04-25 15:51 | 51.26800 | -0.91157 | 28755 ft | 466 kts | 139° |
| 2026-04-25 15:51 | 51.24357 | -0.87716 | 28833 ft | 473 kts | 141° |
| 2026-04-25 15:52 | 51.19191 | -0.80950 | 28970 ft | 487 kts | 142° |
| 2026-04-25 15:52 | 51.13929 | -0.73985 | 29171 ft | 495 kts | 141° |
| 2026-04-25 15:53 | 51.08664 | -0.66889 | 29174 ft | 495 kts | 141° |
| 2026-04-25 15:53 | 51.03330 | -0.60023 | 29180 ft | 492 kts | 146° |
| 2026-04-25 15:54 | 50.97647 | -0.54011 | 29195 ft | 491 kts | 149° |
| 2026-04-25 15:54 | 50.91920 | -0.48108 | 29210 ft | 491 kts | 148° |
| 2026-04-25 15:55 | 50.86265 | -0.42163 | 29199 ft | 492 kts | 148° |
| 2026-04-25 15:55 | 50.80578 | -0.36139 | 29215 ft | 492 kts | 148° |
| 2026-04-25 15:56 | 50.74888 | -0.30131 | 29214 ft | 492 kts | 148° |
| 2026-04-25 15:56 | 50.69185 | -0.24137 | 29215 ft | 493 kts | 148° |
| 2026-04-25 15:57 | 50.63477 | -0.18156 | 29193 ft | 493 kts | 148° |
| 2026-04-25 15:57 | 50.57761 | -0.12181 | 29192 ft | 493 kts | 148° |
| 2026-04-25 15:58 | 50.52042 | -0.06218 | 29186 ft | 493 kts | 148° |
| 2026-04-25 15:58 | 50.46317 | -0.00264 | 29205 ft | 493 kts | 148° |
| 2026-04-25 15:59 | 50.40680 | 0.05591 | 29192 ft | 492 kts | 148° |
| 2026-04-25 15:59 | 50.34982 | 0.11506 | 29190 ft | 491 kts | 148° |
| 2026-04-25 16:00 | 50.31178 | 0.15453 | 29186 ft | 490 kts | 148° |
| 2026-04-25 16:00 | 50.23612 | 0.23287 | 29196 ft | 490 kts | 148° |
| 2026-04-25 16:01 | 50.17922 | 0.29151 | 29182 ft | 490 kts | 148° |
| 2026-04-25 16:01 | 50.12235 | 0.34983 | 29191 ft | 489 kts | 148° |
| 2026-04-25 16:02 | 50.06547 | 0.40801 | 29188 ft | 489 kts | 148° |
| 2026-04-25 16:02 | 50.00857 | 0.46607 | 29192 ft | 489 kts | 149° |
| 2026-04-25 16:03 | 49.95180 | 0.52385 | 29164 ft | 487 kts | 149° |
| 2026-04-25 16:03 | 49.89512 | 0.58139 | 29180 ft | 486 kts | 149° |
| 2026-04-25 16:04 | 49.83908 | 0.64016 | 29180 ft | 488 kts | 145° |
| 2026-04-25 16:04 | 49.78635 | 0.70645 | 29186 ft | 489 kts | 143° |
| 2026-04-25 16:05 | 49.73415 | 0.77385 | 29172 ft | 489 kts | 143° |
| 2026-04-25 16:06 | 49.65567 | 0.87284 | 29168 ft | 487 kts | 144° |
| 2026-04-25 16:06 | 49.60293 | 0.93851 | 29153 ft | 487 kts | 144° |
| 2026-04-25 16:07 | 49.55092 | 1.00314 | 29162 ft | 488 kts | 144° |
| 2026-04-25 16:07 | 49.49810 | 1.06863 | 29154 ft | 487 kts | 144° |
| 2026-04-25 16:08 | 49.44531 | 1.13395 | 29156 ft | 487 kts | 144° |
| 2026-04-25 16:08 | 49.39252 | 1.19904 | 29158 ft | 487 kts | 144° |
| 2026-04-25 16:09 | 49.33968 | 1.26398 | 29159 ft | 487 kts | 145° |
| 2026-04-25 16:09 | 49.28684 | 1.32879 | 29152 ft | 486 kts | 145° |
| 2026-04-25 16:10 | 49.24252 | 1.38304 | 29141 ft | 487 kts | 144° |
| 2026-04-25 16:10 | 49.18094 | 1.45819 | 29147 ft | 488 kts | 144° |
| 2026-04-25 16:11 | 49.12785 | 1.52278 | 29143 ft | 488 kts | 145° |
| 2026-04-25 16:11 | 49.07468 | 1.58729 | 29142 ft | 488 kts | 145° |
| 2026-04-25 16:12 | 49.02153 | 1.65160 | 29133 ft | 487 kts | 144° |
| 2026-04-25 16:12 | 48.96856 | 1.71552 | 29129 ft | 487 kts | 144° |
| 2026-04-25 16:13 | 48.91548 | 1.77940 | 29118 ft | 487 kts | 144° |
| 2026-04-25 16:13 | 48.86231 | 1.84318 | 29126 ft | 487 kts | 144° |
| 2026-04-25 16:14 | 48.80899 | 1.90696 | 29133 ft | 488 kts | 144° |
| 2026-04-25 16:14 | 48.75556 | 1.97071 | 29129 ft | 489 kts | 144° |
| 2026-04-25 16:15 | 48.70279 | 2.03351 | 29127 ft | 489 kts | 144° |
| 2026-04-25 16:15 | 48.64924 | 2.09707 | 29129 ft | 489 kts | 144° |
| 2026-04-25 16:16 | 48.59571 | 2.16043 | 29121 ft | 489 kts | 144° |
| 2026-04-25 16:16 | 48.54383 | 2.22687 | 29130 ft | 491 kts | 137° |
| 2026-04-25 16:17 | 48.49602 | 2.30062 | 29101 ft | 492 kts | 136° |
| 2026-04-25 16:17 | 48.44831 | 2.37452 | 29121 ft | 492 kts | 136° |
| 2026-04-25 16:18 | 48.40034 | 2.44713 | 29100 ft | 492 kts | 137° |
| 2026-04-25 16:18 | 48.35192 | 2.51977 | 29118 ft | 492 kts | 137° |
| 2026-04-25 16:19 | 48.30340 | 2.59228 | 29105 ft | 491 kts | 138° |
| 2026-04-25 16:19 | 48.24800 | 2.65072 | 29103 ft | 486 kts | 157° |
| 2026-04-25 16:20 | 48.15670 | 2.71692 | 29110 ft | 487 kts | 152° |
| 2026-04-25 16:21 | 48.06730 | 2.78932 | 29102 ft | 486 kts | 158° |
| 2026-04-25 16:21 | 48.00520 | 2.82886 | 29110 ft | 485 kts | 160° |
| 2026-04-25 16:22 | 47.94287 | 2.86751 | 29097 ft | 485 kts | 159° |
| 2026-04-25 16:22 | 47.88065 | 2.90661 | 29110 ft | 485 kts | 159° |
| 2026-04-25 16:23 | 47.81852 | 2.94592 | 29111 ft | 485 kts | 159° |
| 2026-04-25 16:23 | 47.75634 | 2.98520 | 29104 ft | 485 kts | 159° |
| 2026-04-25 16:24 | 47.69522 | 3.02370 | 29104 ft | 485 kts | 159° |
| 2026-04-25 16:24 | 47.63309 | 3.06271 | 29103 ft | 485 kts | 159° |
| 2026-04-25 16:25 | 47.57097 | 3.10163 | 29102 ft | 485 kts | 159° |
| 2026-04-25 16:25 | 47.50882 | 3.14041 | 29102 ft | 485 kts | 159° |
| 2026-04-25 16:26 | 47.44667 | 3.17898 | 29095 ft | 485 kts | 159° |
| 2026-04-25 16:26 | 47.38446 | 3.21750 | 29098 ft | 485 kts | 159° |
| 2026-04-25 16:27 | 47.32228 | 3.25593 | 29090 ft | 485 kts | 159° |
| 2026-04-25 16:27 | 47.26012 | 3.29425 | 29096 ft | 484 kts | 159° |
| 2026-04-25 16:28 | 47.20850 | 3.32601 | 29097 ft | 483 kts | 159° |
| 2026-04-25 16:28 | 47.14649 | 3.36407 | 29095 ft | 482 kts | 159° |
| 2026-04-25 16:29 | 47.08458 | 3.40204 | 29097 ft | 482 kts | 159° |
| 2026-04-25 16:29 | 47.02274 | 3.43994 | 29101 ft | 482 kts | 159° |
| 2026-04-25 16:30 | 46.96101 | 3.47767 | 29100 ft | 481 kts | 159° |
| 2026-04-25 16:30 | 46.89914 | 3.51541 | 29086 ft | 482 kts | 159° |
| 2026-04-25 16:31 | 46.83715 | 3.55311 | 29094 ft | 483 kts | 159° |
| 2026-04-25 16:31 | 46.77503 | 3.59081 | 29093 ft | 484 kts | 159° |
| 2026-04-25 16:32 | 46.71281 | 3.62847 | 29091 ft | 484 kts | 159° |
| 2026-04-25 16:32 | 46.65006 | 3.66413 | 29094 ft | 484 kts | 161° |
| 2026-04-25 16:32 | 46.61880 | 3.68078 | 29072 ft | 469 kts | 162° |
| 2026-04-25 16:33 | 46.58872 | 3.69680 | 29073 ft | 453 kts | 161° |
| 2026-04-25 16:33 | 46.53023 | 3.72827 | 29097 ft | 447 kts | 161° |
| 2026-04-25 16:34 | 46.47179 | 3.75996 | 29095 ft | 449 kts | 161° |
| 2026-04-25 16:34 | 46.41342 | 3.79291 | 29107 ft | 451 kts | 160° |
| 2026-04-25 16:35 | 46.35513 | 3.82707 | 29091 ft | 452 kts | 160° |
| 2026-04-25 16:35 | 46.29690 | 3.85904 | 28711 ft | 440 kts | 161° |
| 2026-04-25 16:35 | 46.26818 | 3.87447 | 27923 ft | 441 kts | 161° |
| 2026-04-25 16:36 | 46.23929 | 3.89002 | 26990 ft | 445 kts | 161° |
| 2026-04-25 16:36 | 46.22985 | 3.89513 | 26677 ft | 447 kts | 161° |
| 2026-04-25 16:36 | 46.18070 | 3.92179 | 25212 ft | 452 kts | 160° |
| 2026-04-25 16:36 | 46.15150 | 3.93805 | 24619 ft | 448 kts | 156° |
| 2026-04-25 16:37 | 46.12565 | 3.96251 | 24050 ft | 446 kts | 137° |
| 2026-04-25 16:37 | 46.10603 | 3.99665 | 23431 ft | 443 kts | 122° |
| 2026-04-25 16:37 | 46.09352 | 4.03602 | 22680 ft | 441 kts | 109° |
| 2026-04-25 16:37 | 46.08371 | 4.07781 | 21950 ft | 440 kts | 108° |
| 2026-04-25 16:38 | 46.07417 | 4.11952 | 21237 ft | 438 kts | 108° |
| 2026-04-25 16:38 | 46.06461 | 4.16058 | 20914 ft | 427 kts | 108° |
| 2026-04-25 16:38 | 46.05519 | 4.20012 | 20528 ft | 419 kts | 108° |
| 2026-04-25 16:38 | 46.04552 | 4.23998 | 20030 ft | 414 kts | 109° |
| 2026-04-25 16:39 | 46.03596 | 4.27903 | 19430 ft | 413 kts | 109° |
| 2026-04-25 16:39 | 46.02637 | 4.31778 | 18890 ft | 410 kts | 111° |
| 2026-04-25 16:39 | 46.01245 | 4.35280 | 18308 ft | 410 kts | 130° |
| 2026-04-25 16:39 | 45.99137 | 4.37989 | 17713 ft | 408 kts | 146° |
| 2026-04-25 16:40 | 45.96791 | 4.40226 | 17233 ft | 403 kts | 147° |
| 2026-04-25 16:40 | 45.94449 | 4.42410 | 16666 ft | 400 kts | 147° |
| 2026-04-25 16:40 | 45.92122 | 4.44584 | 16122 ft | 398 kts | 147° |
| 2026-04-25 16:40 | 45.89823 | 4.46751 | 15713 ft | 392 kts | 146° |
| 2026-04-25 16:41 | 45.87539 | 4.48920 | 15254 ft | 387 kts | 146° |
| 2026-04-25 16:41 | 45.86053 | 4.50336 | 14929 ft | 385 kts | 146° |
| 2026-04-25 16:41 | 45.80843 | 4.55314 | 13717 ft | 380 kts | 146° |
| 2026-04-25 16:42 | 45.78670 | 4.57389 | 13311 ft | 373 kts | 146° |
| 2026-04-25 16:42 | 45.76514 | 4.59447 | 12674 ft | 373 kts | 146° |
| 2026-04-25 16:42 | 45.74386 | 4.61475 | 12264 ft | 369 kts | 146° |
| 2026-04-25 16:42 | 45.72226 | 4.63530 | 11616 ft | 371 kts | 146° |
| 2026-04-25 16:43 | 45.70063 | 4.65470 | 11023 ft | 372 kts | 152° |
| 2026-04-25 16:43 | 45.67718 | 4.66994 | 10576 ft | 368 kts | 158° |
| 2026-04-25 16:43 | 45.65353 | 4.68294 | 10236 ft | 361 kts | 160° |
| 2026-04-25 16:43 | 45.63030 | 4.69524 | 10066 ft | 350 kts | 159° |
| 2026-04-25 16:44 | 45.60789 | 4.70722 | 9912 ft | 339 kts | 159° |
| 2026-04-25 16:44 | 45.58600 | 4.71917 | 9523 ft | 336 kts | 158° |
| 2026-04-25 16:44 | 45.56415 | 4.73130 | 9016 ft | 337 kts | 158° |
| 2026-04-25 16:44 | 45.54237 | 4.74353 | 8623 ft | 336 kts | 158° |
| 2026-04-25 16:45 | 45.52072 | 4.75577 | 8275 ft | 333 kts | 158° |
| 2026-04-25 16:45 | 45.49928 | 4.76792 | 7900 ft | 331 kts | 158° |
| 2026-04-25 16:45 | 45.47798 | 4.78001 | 7548 ft | 328 kts | 158° |
| 2026-04-25 16:45 | 45.45688 | 4.79198 | 7188 ft | 326 kts | 158° |
| 2026-04-25 16:46 | 45.43570 | 4.80398 | 7095 ft | 334 kts | 158° |
| 2026-04-25 16:46 | 45.41415 | 4.81619 | 7070 ft | 331 kts | 158° |
| 2026-04-25 16:46 | 45.39289 | 4.82823 | 7056 ft | 328 kts | 158° |
| 2026-04-25 16:46 | 45.37891 | 4.83615 | 7057 ft | 326 kts | 159° |
| 2026-04-25 16:47 | 45.35061 | 4.85213 | 7064 ft | 329 kts | 159° |
| 2026-04-25 16:47 | 45.32921 | 4.86422 | 7060 ft | 331 kts | 159° |
| 2026-04-25 16:47 | 45.30778 | 4.87633 | 7056 ft | 332 kts | 158° |
| 2026-04-25 16:47 | 45.28631 | 4.88844 | 7065 ft | 330 kts | 158° |
| 2026-04-25 16:48 | 45.26509 | 4.90038 | 7055 ft | 327 kts | 158° |
| 2026-04-25 16:48 | 45.24399 | 4.91220 | 7056 ft | 325 kts | 158° |
| 2026-04-25 16:48 | 45.22287 | 4.92404 | 7062 ft | 327 kts | 158° |
| 2026-04-25 16:48 | 45.20286 | 4.93916 | 7048 ft | 324 kts | 139° |
| 2026-04-25 16:49 | 45.18893 | 4.96301 | 7047 ft | 308 kts | 114° |
| 2026-04-25 16:49 | 45.18340 | 4.99074 | 7025 ft | 289 kts | 92° |
| 2026-04-25 16:49 | 45.18237 | 5.01827 | 6972 ft | 277 kts | 89° |
| 2026-04-25 16:49 | 45.18188 | 5.04469 | 6880 ft | 267 kts | 88° |
| 2026-04-25 16:50 | 45.18149 | 5.07054 | 6800 ft | 257 kts | 88° |
| 2026-04-25 16:50 | 45.18112 | 5.09539 | 6737 ft | 247 kts | 87° |
| 2026-04-25 16:50 | 45.18071 | 5.11958 | 6444 ft | 247 kts | 88° |
| 2026-04-25 16:50 | 45.18039 | 5.14388 | 6205 ft | 246 kts | 88° |
| 2026-04-25 16:51 | 45.18010 | 5.16800 | 6004 ft | 244 kts | 87° |
| 2026-04-25 16:51 | 45.17976 | 5.19185 | 5779 ft | 241 kts | 87° |
| 2026-04-25 16:51 | 45.17939 | 5.21576 | 5491 ft | 243 kts | 88° |
| 2026-04-25 16:51 | 45.17911 | 5.23186 | 5366 ft | 241 kts | 88° |
| 2026-04-25 16:52 | 45.17861 | 5.26323 | 5065 ft | 239 kts | 87° |
| 2026-04-25 16:52 | 45.17820 | 5.28656 | 4849 ft | 237 kts | 87° |
| 2026-04-25 16:52 | 45.17776 | 5.30984 | 4619 ft | 235 kts | 87° |
| 2026-04-25 16:52 | 45.17730 | 5.33301 | 4340 ft | 236 kts | 88° |
| 2026-04-25 16:53 | 45.17635 | 5.37935 | 4018 ft | 236 kts | 88° |
| 2026-04-25 16:53 | 45.17613 | 5.40261 | 3995 ft | 236 kts | 79° |
| 2026-04-25 16:53 | 45.18190 | 5.42366 | 4012 ft | 228 kts | 47° |
| 2026-04-25 16:54 | 45.19363 | 5.43843 | 3999 ft | 223 kts | 34° |
| 2026-04-25 16:54 | 45.20570 | 5.45121 | 3994 ft | 210 kts | 33° |
| 2026-04-25 16:54 | 45.21724 | 5.46319 | 3986 ft | 204 kts | 33° |
| 2026-04-25 16:54 | 45.22870 | 5.47488 | 3987 ft | 201 kts | 33° |
| 2026-04-25 16:55 | 45.23980 | 5.48613 | 3989 ft | 191 kts | 32° |
| 2026-04-25 16:55 | 45.25014 | 5.49700 | 3997 ft | 182 kts | 34° |
| 2026-04-25 16:55 | 45.26041 | 5.50764 | 3994 ft | 183 kts | 32° |
| 2026-04-25 16:55 | 45.27068 | 5.51823 | 4006 ft | 182 kts | 33° |
| 2026-04-25 16:56 | 45.28090 | 5.52882 | 3974 ft | 182 kts | 32° |
| 2026-04-25 16:56 | 45.29105 | 5.53948 | 4008 ft | 181 kts | 33° |
| 2026-04-25 16:56 | 45.30120 | 5.55013 | 3985 ft | 181 kts | 32° |
| 2026-04-25 16:56 | 45.31143 | 5.56067 | 3996 ft | 181 kts | 32° |
| 2026-04-25 16:57 | 45.32201 | 5.57052 | 3829 ft | 181 kts | 17° |
| 2026-04-25 16:57 | 45.32587 | 5.57210 | 3783 ft | 177 kts | 8° |
| 2026-04-25 16:57 | 45.34618 | 5.57488 | 3533 ft | 175 kts | 357° |
| 2026-04-25 16:57 | 45.35675 | 5.56874 | 3508 ft | 169 kts | 311° |
| 2026-04-25 16:58 | 45.36014 | 5.55321 | 3510 ft | 169 kts | 274° |
| 2026-04-25 16:58 | 45.36123 | 5.53648 | 3503 ft | 168 kts | 283° |
| 2026-04-25 16:58 | 45.36232 | 5.52075 | 3509 ft | 157 kts | 278° |
| 2026-04-25 16:58 | 45.36250 | 5.50521 | 3504 ft | 152 kts | 276° |
| 2026-04-25 16:59 | 45.36259 | 5.49031 | 3493 ft | 153 kts | 275° |
| 2026-04-25 16:59 | 45.36261 | 5.47491 | 3258 ft | 155 kts | 275° |
| 2026-04-25 16:59 | 45.36262 | 5.45954 | 3032 ft | 154 kts | 276° |
| 2026-04-25 16:59 | 45.36265 | 5.44442 | 2789 ft | 153 kts | 276° |
| 2026-04-25 17:00 | 45.36281 | 5.43431 | 2657 ft | 150 kts | 276° |
| 2026-04-25 17:00 | 45.36262 | 5.41485 | 2335 ft | 152 kts | 279° |
| 2026-04-25 17:00 | 45.36284 | 5.39912 | 2189 ft | 161 kts | 276° |
| 2026-04-25 17:00 | 45.36272 | 5.38355 | 1864 ft | 153 kts | 275° |
| 2026-04-25 17:01 | 45.36272 | 5.36890 | 1640 ft | 145 kts | 276° |
| 2026-04-25 17:01 | 45.36291 | 5.35432 | 1448 ft | 149 kts | 273° |
| 2026-04-25 17:01 | 45.36287 | 5.33989 | 1312 ft | 136 kts | 274° |
| 2026-04-25 17:01 | 45.36296 | 5.32824 | 1310 ft | 97 kts | 270° |
| 2026-04-25 17:02 | 45.36297 | 5.32077 | 1311 ft | 54 kts | 270° |
| 2026-04-25 17:02 | 45.36284 | 5.31699 | 1310 ft | 14 kts | 230° |
| 2026-04-25 17:02 | 45.36195 | 5.31678 | 1310 ft | 13 kts | 179° |
| 2026-04-25 17:02 | 45.36143 | 5.31763 | 1310 ft | 13 kts | 90° |
| 2026-04-25 17:03 | 45.36142 | 5.31888 | 1310 ft | 13 kts | 91° |
| 2026-04-25 17:03 | 45.36142 | 5.32060 | 1310 ft | 19 kts | 90° |
| 2026-04-25 17:03 | 45.36141 | 5.32248 | 1310 ft | 19 kts | 91° |
| 2026-04-25 17:03 | 45.36141 | 5.32430 | 1310 ft | 18 kts | 90° |
| 2026-04-25 17:04 | 45.36141 | 5.32607 | 1310 ft | 18 kts | 90° |
| 2026-04-25 17:04 | 45.36140 | 5.32826 | 1310 ft | 23 kts | 90° |
| 2026-04-25 17:04 | 45.36140 | 5.33048 | 1310 ft | 22 kts | 90° |
| 2026-04-25 17:04 | 45.36137 | 5.33175 | 1310 ft | 7 kts | 109° |
| 2026-04-25 17:05 | 45.36117 | 5.33192 | 1310 ft | 3 kts | 195° |
| 2026-04-25 17:05 | 45.36084 | 5.33145 | 1310 ft | 0 kts | 228° |